createdAt,value
2022-11-01T07:53:47.747Z,0.40
2022-11-01T07:56:14.468Z,0.70
2022-11-01T07:58:43.492Z,0.50
2022-11-01T08:01:11.000Z,0.77
2022-11-01T08:03:37.779Z,0.43
2022-11-01T08:06:04.589Z,0.40
2022-11-01T08:08:31.228Z,0.80
2022-11-01T08:11:01.134Z,0.60
2022-11-01T08:13:27.994Z,0.30
2022-11-01T08:15:54.713Z,0.50
2022-11-01T08:18:24.242Z,0.57
2022-11-01T08:20:51.383Z,0.60
2022-11-01T08:23:18.233Z,0.50
2022-11-01T08:25:45.639Z,0.77
2022-11-01T08:28:18.755Z,0.40
2022-11-01T08:30:47.243Z,0.50
2022-11-01T08:33:14.189Z,0.50
2022-11-01T08:35:42.596Z,0.60
2022-11-01T08:38:12.551Z,0.57
2022-11-01T08:40:40.350Z,0.93
2022-11-01T08:43:07.179Z,0.75
2022-11-01T08:45:33.944Z,0.70
2022-11-01T08:48:03.440Z,0.63
2022-11-01T08:50:30.420Z,0.50
2022-11-01T08:52:57.342Z,0.60
2022-11-01T08:55:24.276Z,1.17
2022-11-01T08:57:51.162Z,0.65
2022-11-01T09:00:18.341Z,0.50
2022-11-01T09:02:45.130Z,0.50
2022-11-01T09:05:11.888Z,0.50
2022-11-01T09:07:39.317Z,0.70
2022-11-01T09:10:06.936Z,0.98
2022-11-01T09:12:33.717Z,0.80
2022-11-01T09:15:00.473Z,0.80
2022-11-01T09:17:27.239Z,0.85
2022-11-01T09:19:53.892Z,0.90
2022-11-01T09:22:20.731Z,0.75
2022-11-01T09:24:47.383Z,1.17
2022-11-01T09:27:14.339Z,0.80
2022-11-01T09:29:41.090Z,6.78
2022-11-01T09:32:07.836Z,1.48
2022-11-01T09:34:35.043Z,1.40
2022-11-01T09:37:02.051Z,1.67
2022-11-01T09:39:28.719Z,1.15
2022-11-01T09:42:20.812Z,0.98
2022-11-01T09:44:50.433Z,0.85
2022-11-01T09:47:21.386Z,0.82
2022-11-01T09:49:59.142Z,0.90
2022-11-01T09:52:25.988Z,0.90
2022-11-01T09:54:53.243Z,0.73
2022-11-01T09:57:26.748Z,1.20
2022-11-01T09:59:59.727Z,1.45
2022-11-01T10:02:36.219Z,1.20
2022-11-01T10:05:37.754Z,1.10
2022-11-01T10:08:30.070Z,1.88
2022-11-01T10:11:15.343Z,1.38
2022-11-01T10:14:04.751Z,1.85
2022-11-01T10:16:41.817Z,1.38
2022-11-01T10:19:17.546Z,1.25
2022-11-01T10:21:48.798Z,1.67
2022-11-01T10:24:18.300Z,1.88
2022-11-01T10:26:48.914Z,1.20
2022-11-01T10:29:37.190Z,2.42
2022-11-01T10:32:09.483Z,1.73
2022-11-01T10:34:39.638Z,1.55
2022-11-01T10:37:23.560Z,2.13
2022-11-01T10:40:06.406Z,1.80
2022-11-01T10:42:36.272Z,0.98
2022-11-01T10:45:17.401Z,1.55
2022-11-01T10:47:46.254Z,1.17
2022-11-01T10:50:20.116Z,1.60
2022-11-01T10:52:51.879Z,1.50
2022-11-01T10:55:28.812Z,1.15
2022-11-01T10:58:05.995Z,1.33
2022-11-01T11:00:37.091Z,2.17
2022-11-01T11:03:21.167Z,1.48
2022-11-01T11:05:49.061Z,1.77
2022-11-01T11:08:18.131Z,2.28
2022-11-01T11:10:45.927Z,1.60
2022-11-01T11:13:16.705Z,1.67
2022-11-01T11:15:55.098Z,0.80
2022-11-01T11:18:25.531Z,1.80
2022-11-01T11:20:59.931Z,1.70
2022-11-01T11:23:29.704Z,1.30
2022-11-01T11:26:05.335Z,1.25
2022-11-01T11:28:35.922Z,1.30
2022-11-01T11:31:24.224Z,1.33
2022-11-01T11:33:56.015Z,1.05
2022-11-01T11:36:44.336Z,1.35
2022-11-01T11:39:29.632Z,1.27
2022-11-01T11:42:21.100Z,1.50
2022-11-01T11:44:55.915Z,3.75
2022-11-01T11:47:25.838Z,1.58
2022-11-01T11:49:54.190Z,1.33
2022-11-01T11:52:28.323Z,1.63
2022-11-01T11:54:55.506Z,1.38
2022-11-01T11:57:27.188Z,1.55
2022-11-01T12:00:05.387Z,1.88
2022-11-01T12:02:37.481Z,1.70
2022-11-01T12:05:14.884Z,1.10
2022-11-01T12:07:49.804Z,1.08
2022-11-01T12:10:39.325Z,1.33
2022-11-01T12:13:33.134Z,1.43
2022-11-01T12:16:21.593Z,0.98
2022-11-01T12:19:02.441Z,1.38
2022-11-01T12:21:34.382Z,1.52
2022-11-01T12:24:23.740Z,1.25
2022-11-01T12:26:54.213Z,1.40
2022-11-01T12:29:50.528Z,1.23
2022-11-01T12:32:26.483Z,1.65
2022-11-01T12:34:58.004Z,1.27
2022-11-01T12:37:52.597Z,1.20
2022-11-01T12:40:33.002Z,1.33
2022-11-01T12:45:40.808Z,1.40
2022-11-01T12:48:13.275Z,1.15
2022-11-01T12:50:54.403Z,1.40
2022-11-01T12:53:49.449Z,1.00
2022-11-01T12:56:17.770Z,1.48
2022-11-01T12:58:44.678Z,1.42
2022-11-01T13:01:36.443Z,1.58
2022-11-01T13:04:17.636Z,1.30
2022-11-01T13:06:47.306Z,1.52
2022-11-01T13:09:32.692Z,1.58
2022-11-01T13:12:32.665Z,1.95
2022-11-01T13:15:18.932Z,1.00
2022-11-01T13:17:55.568Z,1.33
2022-11-01T13:20:45.983Z,2.08
2022-11-01T13:26:11.500Z,1.40
2022-11-01T13:28:43.785Z,1.67
2022-11-01T13:31:51.534Z,1.50
2022-11-01T13:34:39.678Z,1.00
2022-11-01T13:37:11.588Z,1.08
2022-11-01T13:40:04.013Z,1.67
2022-11-01T13:42:33.973Z,1.30
2022-11-01T13:45:12.728Z,1.38
2022-11-01T13:48:17.614Z,1.50
2022-11-01T13:50:56.092Z,1.38
2022-11-01T13:53:40.297Z,1.40
2022-11-01T13:56:21.148Z,1.40
2022-11-01T13:58:48.115Z,1.48
2022-11-01T14:01:35.558Z,1.27
2022-11-01T14:04:34.412Z,1.13
2022-11-01T14:07:10.354Z,1.25
2022-11-01T14:09:55.236Z,0.93
2022-11-01T14:12:32.983Z,1.20
2022-11-01T14:15:26.923Z,1.20
2022-11-01T14:17:56.320Z,1.05
2022-11-01T14:20:26.056Z,1.33
2022-11-01T14:22:54.362Z,1.17
2022-11-01T14:25:24.124Z,1.15
2022-11-01T14:28:11.867Z,1.00
2022-11-01T14:30:42.234Z,1.30
2022-11-01T14:35:40.941Z,0.98
2022-11-01T14:38:18.433Z,1.00
2022-11-01T14:41:05.220Z,1.40
2022-11-01T14:43:53.318Z,1.25
2022-11-01T14:46:25.112Z,1.08
2022-11-01T14:48:51.714Z,1.40
2022-11-01T14:51:28.410Z,1.10
2022-11-01T14:54:30.336Z,1.23
2022-11-01T14:56:58.199Z,1.08
2022-11-01T14:59:31.697Z,1.38
2022-11-01T15:02:03.218Z,0.93
2022-11-01T15:04:33.152Z,1.10
2022-11-01T15:07:00.363Z,1.27
2022-11-01T15:09:29.873Z,1.05
2022-11-01T15:12:06.118Z,1.17
2022-11-01T15:14:40.409Z,1.27
2022-11-01T15:17:17.714Z,1.60
2022-11-01T15:19:46.163Z,1.63
2022-11-01T15:22:17.792Z,1.80
2022-11-01T15:24:47.467Z,1.40
2022-11-01T15:27:21.161Z,1.77
2022-11-01T15:29:48.916Z,2.05
2022-11-01T15:32:34.607Z,1.20
2022-11-01T15:35:05.777Z,1.10
2022-11-01T15:37:33.659Z,1.33
2022-11-01T15:40:01.671Z,1.85
2022-11-01T15:42:33.746Z,1.40
2022-11-01T15:45:19.482Z,1.80
2022-11-01T15:47:46.640Z,1.52
2022-11-01T15:50:13.830Z,1.17
2022-11-01T15:52:40.613Z,1.10
2022-11-01T15:55:20.838Z,1.67
2022-11-01T15:58:08.850Z,1.50
2022-11-01T16:00:41.983Z,1.80
2022-11-01T16:03:14.107Z,2.10
2022-11-01T16:05:56.784Z,1.73
2022-11-01T16:08:40.215Z,1.48
2022-11-01T16:11:07.556Z,1.15
2022-11-01T16:13:34.709Z,1.38
2022-11-01T16:16:07.369Z,1.25
2022-11-01T16:18:36.283Z,1.27
2022-11-01T16:21:21.221Z,1.50
2022-11-01T16:23:56.788Z,1.27
2022-11-01T16:26:23.538Z,1.83
2022-11-01T16:28:51.853Z,1.80
2022-11-01T16:31:26.143Z,1.90
2022-11-01T16:33:56.710Z,2.03
2022-11-01T16:36:42.907Z,1.70
2022-11-01T16:39:34.957Z,2.40
2022-11-01T16:42:01.706Z,2.05
2022-11-01T16:44:28.623Z,2.30
2022-11-01T16:46:55.458Z,2.10
2022-11-01T16:49:31.368Z,3.78
2022-11-01T16:51:58.316Z,4.03
2022-11-01T16:54:25.562Z,6.82
2022-11-01T16:56:58.414Z,3.33
2022-11-01T16:59:31.676Z,4.90
2022-11-01T17:01:59.795Z,3.75
2022-11-01T17:04:27.895Z,3.83
2022-11-01T17:06:57.893Z,2.13
2022-11-01T17:09:24.806Z,9.23
2022-11-01T17:11:53.767Z,5.18
2022-11-01T17:14:21.865Z,7.90
2022-11-01T17:16:51.073Z,3.92
2022-11-01T17:19:31.609Z,3.70
2022-11-01T17:22:02.594Z,4.13
2022-11-01T17:24:30.967Z,2.45
2022-11-01T17:27:00.971Z,3.80
2022-11-01T17:29:28.115Z,5.35
2022-11-01T17:31:54.790Z,5.68
2022-11-01T17:34:21.475Z,3.50
2022-11-01T17:36:49.948Z,2.65
2022-11-01T17:39:16.957Z,2.80
2022-11-01T17:41:43.735Z,1.60
2022-11-01T17:44:13.318Z,2.20
2022-11-01T17:46:40.023Z,1.90
2022-11-01T17:49:06.758Z,2.20
2022-11-01T17:51:34.097Z,3.95
2022-11-01T17:54:00.789Z,3.70
2022-11-01T17:56:27.607Z,3.83
2022-11-01T17:58:55.462Z,3.45
2022-11-01T18:01:22.641Z,6.70
2022-11-01T18:03:49.498Z,8.50
2022-11-01T18:06:17.043Z,9.13
2022-11-01T18:08:48.599Z,5.78
2022-11-01T18:11:34.262Z,9.05
2022-11-01T18:14:18.250Z,10.27
2022-11-01T18:17:19.402Z,9.10
2022-11-01T18:19:57.708Z,9.55
2022-11-01T18:22:51.332Z,7.35
2022-11-01T18:25:26.053Z,6.00
2022-11-01T18:27:55.258Z,4.10
2022-11-01T18:30:22.218Z,2.60
2022-11-01T18:33:04.419Z,2.47
2022-11-01T18:36:03.343Z,2.72
2022-11-01T18:38:39.387Z,2.85
2022-11-01T18:41:13.310Z,6.68
2022-11-01T18:43:40.331Z,3.00
2022-11-01T18:46:26.833Z,3.80
2022-11-01T18:48:59.548Z,3.72
2022-11-01T18:51:32.440Z,4.22
2022-11-01T18:54:08.222Z,3.40
2022-11-01T18:56:39.918Z,3.45
2022-11-01T18:59:19.234Z,2.88
2022-11-01T19:01:46.435Z,4.07
2022-11-01T19:04:21.794Z,5.30
2022-11-01T19:06:49.182Z,3.20
2022-11-01T19:09:20.019Z,2.20
2022-11-01T19:11:46.995Z,2.97
2022-11-01T19:14:21.772Z,2.70
2022-11-01T19:16:49.401Z,3.22
2022-11-01T19:19:19.744Z,4.20
2022-11-01T19:24:28.419Z,5.20
2022-11-01T19:26:56.895Z,4.93
2022-11-01T19:29:26.049Z,5.25
2022-11-01T19:31:58.230Z,6.05
2022-11-01T19:34:33.385Z,7.22
2022-11-01T19:37:05.035Z,6.18
2022-11-01T19:39:40.727Z,6.70
2022-11-01T19:42:26.840Z,7.13
2022-11-01T19:44:59.943Z,6.20
2022-11-01T19:47:37.003Z,5.88
2022-11-01T19:50:23.576Z,5.13
2022-11-01T19:52:51.644Z,4.90
2022-11-01T19:55:36.779Z,3.85
2022-11-01T19:58:30.051Z,3.85
2022-11-01T20:01:12.677Z,2.88
2022-11-01T20:03:44.511Z,3.67
2022-11-01T20:06:20.731Z,3.47
2022-11-01T20:08:51.232Z,4.45
2022-11-01T20:11:17.979Z,3.58
2022-11-01T20:13:44.723Z,4.20
2022-11-01T20:16:11.375Z,3.70
2022-11-01T20:18:38.097Z,3.85
2022-11-01T20:21:06.403Z,3.00
2022-11-01T20:23:34.035Z,3.85
2022-11-01T20:26:01.546Z,3.55
2022-11-01T20:28:28.302Z,2.25
2022-11-01T20:30:56.064Z,2.30
2022-11-01T20:33:25.684Z,2.10
2022-11-01T20:35:52.726Z,2.05
2022-11-01T20:40:52.024Z,1.30
2022-11-01T20:43:18.663Z,1.60
2022-11-01T20:45:45.366Z,2.67
2022-11-01T20:48:12.174Z,2.45
